Aérodrome :
LOGIN :

S'inscrire | Disclaimer

   EN    FR    IT 

 










Légende :    VFR   VFR Marginal   IFR   IFR Intensif   IFR Très Intensif
Visi : 
Plafond : 
>= 8 km
>= 3000ft
5 à 8 km
1000 à 3000 ft
1500m à 5 km
500 à 1000 ft
800 à 1500m
200 à 500 ft
< 800m
< 200 ft
Symboles :   Orages  Brouillard  Fortes neiges  Fortes précipitations  Vent > 20 kt
SIGMETs :   Divers  Orages  Givrage  Turbulence  Onde Orograph.  Cendres Volcan.






- Altitude de l'aérodrome : 388 ft
- Code IATA : QYR


LFQB - Troyes Barberey

DERNIER METAR :
  • 201000Z AUTO 20010KT 9999 FEW019 OVC038 08/06 Q1022

METARs EXPIRÉS :
  • 200930Z AUTO 19009KT 9999 OVC038 08/06 Q1022
  • 200900Z AUTO 20009KT 9999 OVC040 08/06 Q1022
  • 200830Z AUTO 19010KT 9999 OVC042 08/06 Q1022
  • 200800Z AUTO 18009KT 9999 OVC041 07/06 Q1022
  • 200730Z AUTO 19007KT 9999 OVC040 07/05 Q1022

TAF N/A



MET'MAP, la Météo Aéronautique d'un coup d'oeil ! - Copyright ORBIFLY Décembre 2007 - Disclaimer

ORBIFLY MET'MAP TEAM :

Programmation & Développement : Alexandra Zaïnal
Sur une idée originale de : Baudouin d'Aumeries
Assistance à la programmation : Marc-Olivier Méhu
Soutien technique & logistique : Manuel Goepfert

Contact : metmap@orbifly.com




SOURCES & CREDITS :

   NOAA